Time;durP1;ratioP1;P1;durP2;ratioP2;P2;SDS_P1;SDS_P2;PMS_P1;PMS_P2;Temp;Humidity;BMP_temperature;BMP_pressure;BME280_temperature;BME280_humidity;BME280_pressure;Samples;Min_cycle;Max_cycle;Signal;HPM_P1;HPM_P2
2023/04/04 00:01:48;;;;;;;17.30;14.40;;;;;;;11.11;100.00;98178.38;5072001;28;20200;-69
2023/04/04 00:04:14;;;;;;;17.83;16.03;;;;;;;11.07;100.00;98168.47;5056493;28;20188;-69
2023/04/04 00:06:44;;;;;;;16.80;14.63;;;;;;;11.12;100.00;98166.72;5051555;28;20197;-70
2023/04/04 00:09:12;;;;;;;16.90;15.17;;;;;;;11.18;100.00;98165.78;5051540;28;20681;-69
2023/04/04 00:11:40;;;;;;;18.03;15.40;;;;;;;11.21;100.00;98160.03;5070917;28;20192;-69
2023/04/04 00:14:07;;;;;;;17.43;15.40;;;;;;;11.20;100.00;98141.66;5071517;28;20658;-70
2023/04/04 00:16:35;;;;;;;21.80;15.23;;;;;;;11.25;100.00;98150.53;5071753;28;20197;-70
2023/04/04 00:19:02;;;;;;;17.20;15.13;;;;;;;11.29;100.00;98161.50;5071430;28;20282;-69
2023/04/04 00:21:29;;;;;;;16.33;14.73;;;;;;;11.20;100.00;98142.47;5070506;28;20666;-69
2023/04/04 00:23:56;;;;;;;21.20;15.60;;;;;;;11.24;100.00;98133.00;5071822;28;20192;-69
2023/04/04 00:26:25;;;;;;;21.40;16.27;;;;;;;11.20;100.00;98126.53;5071334;28;20201;-70
2023/04/04 00:28:51;;;;;;;16.93;14.93;;;;;;;11.23;100.00;98127.91;5071506;28;20227;-69
2023/04/04 00:31:18;;;;;;;16.23;14.67;;;;;;;11.27;100.00;98127.19;5054300;28;20244;-70
2023/04/04 00:33:45;;;;;;;19.33;16.80;;;;;;;11.13;100.00;98111.72;5051366;28;20590;-69
2023/04/04 00:36:12;;;;;;;20.17;17.23;;;;;;;11.19;100.00;98124.88;5051216;28;20252;-69
2023/04/04 00:38:39;;;;;;;21.70;16.87;;;;;;;11.18;100.00;98125.94;5051154;28;20548;-70
2023/04/04 00:41:06;;;;;;;18.97;16.30;;;;;;;11.16;100.00;98120.06;5051342;28;20216;-70
2023/04/04 00:43:35;;;;;;;18.97;16.67;;;;;;;11.12;100.00;98131.38;5051444;28;20210;-69
2023/04/04 00:46:01;;;;;;;18.03;16.10;;;;;;;11.07;100.00;98138.19;5051517;28;20255;-70
2023/04/04 00:48:29;;;;;;;18.77;15.63;;;;;;;11.10;100.00;98126.28;5051092;28;20250;-70
2023/04/04 00:50:56;;;;;;;22.03;16.93;;;;;;;11.11;100.00;98119.91;5062724;28;20205;-70
2023/04/04 00:53:23;;;;;;;17.97;15.77;;;;;;;11.04;100.00;98116.59;5073149;28;20687;-70
2023/04/04 00:55:49;;;;;;;18.17;16.37;;;;;;;11.04;100.00;98122.69;5074913;28;20288;-70
2023/04/04 00:58:17;;;;;;;21.80;16.53;;;;;;;11.05;100.00;98112.88;5074961;28;20246;-70
2023/04/04 01:00:45;;;;;;;21.13;16.07;;;;;;;11.07;100.00;98110.00;5067011;28;20311;-70
2023/04/04 01:03:13;;;;;;;24.50;17.20;;;;;;;11.07;100.00;98107.34;5055496;28;20198;-70
2023/04/04 01:05:40;;;;;;;19.17;16.80;;;;;;;10.99;100.00;98108.53;5054774;28;20291;-69
2023/04/04 01:08:07;;;;;;;18.43;16.60;;;;;;;10.98;100.00;98099.72;5054845;28;20197;-70
2023/04/04 01:10:34;;;;;;;19.60;16.87;;;;;;;11.01;100.00;98101.13;5074420;28;20205;-70
2023/04/04 01:13:01;;;;;;;19.80;17.80;;;;;;;11.08;100.00;98107.13;5074872;28;20193;-70
2023/04/04 01:15:28;;;;;;;21.43;18.93;;;;;;;10.99;100.00;98097.91;5074805;28;20635;-71
2023/04/04 01:17:58;;;;;;;26.27;19.77;;;;;;;11.04;100.00;98100.66;5074408;28;20220;-70
2023/04/04 01:20:29;;;;;;;24.37;18.93;;;;;;;10.95;100.00;98107.38;5055837;28;20213;-70
2023/04/04 01:22:57;;;;;;;25.83;19.33;;;;;;;10.97;100.00;98094.66;5054717;28;20190;-69
2023/04/04 01:25:30;;;;;;;26.30;21.67;;;;;;;11.00;100.00;98088.88;5060232;28;20251;-70
2023/04/04 01:27:58;;;;;;;25.80;21.63;;;;;;;11.02;100.00;98102.72;5072975;28;20232;-70
2023/04/04 01:30:28;;;;;;;25.50;21.50;;;;;;;10.93;100.00;98078.38;5074631;28;20195;-70
2023/04/04 01:33:01;;;;;;;25.37;20.67;;;;;;;11.05;100.00;98088.97;5074176;28;20643;-69
2023/04/04 01:35:32;;;;;;;23.43;21.03;;;;;;;11.03;100.00;98099.03;5074254;28;20617;-68
2023/04/04 01:38:14;;;;;;;23.63;21.13;;;;;;;11.09;100.00;98087.47;5062520;28;20276;-68
2023/04/04 01:40:48;;;;;;;24.67;21.13;;;;;;;11.06;100.00;98077.31;5054054;28;20301;-69
2023/04/04 01:43:15;;;;;;;25.33;22.33;;;;;;;10.99;100.00;98087.28;5054002;28;20182;-68
2023/04/04 01:45:42;;;;;;;31.53;22.93;;;;;;;11.01;100.00;98093.13;5059881;28;20245;-69
2023/04/04 01:48:09;;;;;;;29.73;22.87;;;;;;;11.00;100.00;98075.59;5074254;28;20257;-69
2023/04/04 01:50:36;;;;;;;31.03;22.90;;;;;;;11.06;100.00;98087.94;5074413;28;20196;-68
2023/04/04 01:53:03;;;;;;;30.17;24.23;;;;;;;10.89;100.00;98082.53;5074091;28;20191;-68
2023/04/04 01:55:30;;;;;;;27.70;24.53;;;;;;;10.98;100.00;98085.63;5069156;28;20196;-68
2023/04/04 01:57:58;;;;;;;28.70;24.60;;;;;;;11.02;100.00;98083.34;5054090;28;20201;-68
2023/04/04 02:00:25;;;;;;;31.87;24.30;;;;;;;10.88;100.00;98080.09;5053936;28;20233;-68
2023/04/04 02:02:52;;;;;;;33.90;25.20;;;;;;;11.02;100.00;98082.28;5053532;28;20263;-68
2023/04/04 02:05:18;;;;;;;35.03;26.17;;;;;;;11.05;100.00;98075.69;5054505;28;20247;-68
2023/04/04 02:07:48;;;;;;;31.63;24.57;;;;;;;11.12;100.00;98071.06;5073796;28;20238;-68
2023/04/04 02:10:15;;;;;;;33.70;24.67;;;;;;;11.17;100.00;98060.53;5073765;28;20284;-68
2023/04/04 02:12:42;;;;;;;27.37;23.10;;;;;;;11.21;100.00;98085.59;5073350;28;20748;-68
2023/04/04 02:15:11;;;;;;;36.73;23.23;;;;;;;11.27;100.00;98087.31;5057937;28;20284;-68
2023/04/04 02:17:38;;;;;;;29.67;22.23;;;;;;;11.21;100.00;98088.25;5053338;28;20278;-68
2023/04/04 02:20:07;;;;;;;28.23;22.73;;;;;;;11.20;100.00;98083.19;5053551;28;20305;-68
2023/04/04 02:22:33;;;;;;;27.60;22.17;;;;;;;11.18;100.00;98091.38;5053165;28;20194;-68
2023/04/04 02:25:01;;;;;;;31.73;23.33;;;;;;;10.92;100.00;98076.72;5066218;28;20270;-68
2023/04/04 02:27:28;;;;;;;32.93;24.13;;;;;;;11.08;100.00;98076.03;5073116;28;20638;-68
2023/04/04 02:29:55;;;;;;;29.77;23.93;;;;;;;11.12;100.00;98071.06;5073369;28;20188;-67
2023/04/04 02:32:23;;;;;;;32.00;25.17;;;;;;;11.15;100.00;98078.56;5073338;28;20200;-68
2023/04/04 02:34:50;;;;;;;30.90;23.07;;;;;;;11.10;100.00;98078.44;5071912;28;20255;-68
2023/04/04 02:37:17;;;;;;;32.27;24.93;;;;;;;11.05;100.00;98075.69;5073297;28;20854;-68
2023/04/04 02:39:44;;;;;;;26.67;22.17;;;;;;;11.12;100.00;98071.06;5072732;28;20283;-68
2023/04/04 02:42:12;;;;;;;30.17;23.17;;;;;;;11.13;100.00;98071.88;5073132;28;20196;-68
2023/04/04 02:44:38;;;;;;;29.47;22.53;;;;;;;11.13;100.00;98067.38;5063608;28;20192;-68
2023/04/04 02:47:06;;;;;;;30.93;23.63;;;;;;;11.27;100.00;98074.03;5053132;28;20275;-68
2023/04/04 02:49:34;;;;;;;22.57;19.73;;;;;;;11.20;100.00;98061.91;5052721;28;20198;-69
2023/04/04 02:52:01;;;;;;;22.43;20.03;;;;;;;11.28;100.00;98070.34;5053131;28;20259;-69
2023/04/04 02:54:28;;;;;;;22.67;20.27;;;;;;;11.20;100.00;98062.75;5059212;28;20193;-68
2023/04/04 02:56:54;;;;;;;21.70;19.20;;;;;;;11.27;100.00;98074.03;5072621;28;20746;-68
2023/04/04 02:59:21;;;;;;;20.60;18.40;;;;;;;11.24;100.00;98058.56;5072734;28;20201;-68
2023/04/04 03:01:48;;;;;;;19.33;17.30;;;;;;;11.26;100.00;98066.31;5072484;28;20706;-68
2023/04/04 03:04:15;;;;;;;23.30;18.93;;;;;;;11.20;100.00;98073.38;5053233;28;20189;-68
2023/04/04 03:06:43;;;;;;;22.23;18.00;;;;;;;11.19;100.00;98077.03;5053122;28;20194;-69
2023/04/04 03:09:09;;;;;;;26.13;20.83;;;;;;;11.26;100.00;98072.41;5052658;28;20631;-69
2023/04/04 03:11:36;;;;;;;33.53;24.33;;;;;;;11.22;100.00;98081.91;5052938;28;20202;-70
2023/04/04 03:14:03;;;;;;;21.00;18.97;;;;;;;11.01;100.00;98063.91;5068333;28;20196;-70
2023/04/04 03:16:30;;;;;;;28.00;21.27;;;;;;;11.12;100.00;98080.88;5072305;28;20190;-70
2023/04/04 03:18:57;;;;;;;26.47;22.03;;;;;;;11.07;100.00;98069.09;5072439;28;20197;-70
2023/04/04 03:21:24;;;;;;;26.17;21.27;;;;;;;11.04;100.00;98068.78;5062930;28;20300;-70
2023/04/04 03:23:52;;;;;;;26.17;21.93;;;;;;;11.14;100.00;98084.13;5051964;28;20629;-69
2023/04/04 03:26:19;;;;;;;30.03;24.10;;;;;;;11.19;100.00;98079.69;5065440;28;20272;-68
2023/04/04 03:28:46;;;;;;;31.90;23.93;;;;;;;11.07;100.00;98073.63;5071916;28;20233;-68
2023/04/04 03:31:12;;;;;;;30.20;23.93;;;;;;;11.13;100.00;98075.34;5070694;28;20193;-68
2023/04/04 03:33:39;;;;;;;32.23;23.00;;;;;;;11.13;100.00;98083.31;5072243;28;20253;-68
2023/04/04 03:36:10;;;;;;;29.57;23.93;;;;;;;11.17;100.00;98084.47;5072323;28;20230;-69
2023/04/04 03:38:37;;;;;;;30.17;22.93;;;;;;;11.09;100.00;98098.09;5071791;28;20280;-70
2023/04/04 03:41:06;;;;;;;28.50;23.03;;;;;;;11.13;100.00;98093.13;5066319;28;20775;-69
2023/04/04 03:43:34;;;;;;;34.60;23.03;;;;;;;11.21;100.00;98090.09;5051608;28;20735;-69
2023/04/04 03:46:01;;;;;;;30.00;22.30;;;;;;;11.22;100.00;98097.84;5051820;28;20548;-70
2023/04/04 03:48:28;;;;;;;29.97;22.70;;;;;;;11.18;100.00;98095.91;5052047;28;20193;-69
2023/04/04 03:50:56;;;;;;;28.17;22.77;;;;;;;11.19;100.00;98106.28;5051727;28;20251;-69
2023/04/04 03:53:23;;;;;;;32.20;23.13;;;;;;;11.16;100.00;98103.28;5070060;28;20195;-70
2023/04/04 03:55:50;;;;;;;32.00;24.57;;;;;;;11.12;100.00;98102.97;5071884;28;20243;-70
2023/04/04 03:58:18;;;;;;;32.63;24.43;;;;;;;11.08;100.00;98097.28;5071644;28;20246;-69
2023/04/04 04:00:45;;;;;;;29.80;22.87;;;;;;;11.22;100.00;98110.34;5071736;28;20220;-69
2023/04/04 04:03:12;;;;;;;27.37;23.17;;;;;;;11.20;100.00;98110.56;5055879;28;20202;-69
2023/04/04 04:05:38;;;;;;;29.53;23.40;;;;;;;11.21;100.00;98109.53;5051456;28;20197;-69
2023/04/04 04:08:05;;;;;;;29.83;22.73;;;;;;;11.16;100.00;98125.38;5051895;28;20189;-69
2023/04/04 04:10:32;;;;;;;26.83;23.43;;;;;;;11.22;100.00;98113.78;5051790;28;20238;-69
2023/04/04 04:12:59;;;;;;;30.53;22.90;;;;;;;11.29;100.00;98114.47;5064197;28;20202;-69
2023/04/04 04:15:27;;;;;;;30.83;23.70;;;;;;;11.26;100.00;98114.16;5071710;28;20194;-69
2023/04/04 04:17:53;;;;;;;32.20;24.17;;;;;;;11.34;100.00;98117.25;5071928;28;20194;-69
2023/04/04 04:20:20;;;;;;;30.07;24.67;;;;;;;11.34;100.00;98113.75;5071597;28;20193;-69
2023/04/04 04:22:47;;;;;;;30.37;24.60;;;;;;;11.33;100.00;98112.97;5060106;28;20197;-69
2023/04/04 04:25:14;;;;;;;27.17;23.40;;;;;;;11.42;100.00;98116.88;5055709;28;20194;-69
2023/04/04 04:27:40;;;;;;;33.43;26.23;;;;;;;11.43;100.00;98110.50;5072301;28;20303;-69
2023/04/04 04:30:09;;;;;;;34.70;27.80;;;;;;;11.52;100.00;98114.44;5074076;28;20194;-69
2023/04/04 04:32:37;;;;;;;31.57;24.47;;;;;;;11.49;100.00;98119.41;5075621;28;20227;-69
2023/04/04 04:35:04;;;;;;;32.87;28.50;;;;;;;11.51;100.00;98109.34;5075443;28;20197;-68
2023/04/04 04:37:31;;;;;;;30.97;26.37;;;;;;;11.54;100.00;98117.66;5075446;28;20197;-69
2023/04/04 04:39:59;;;;;;;31.03;25.37;;;;;;;11.57;100.00;98122.53;5073147;28;20194;-68
2023/04/04 04:42:26;;;;;;;30.37;24.07;;;;;;;11.53;100.00;98131.19;5054913;28;20221;-69
2023/04/04 04:44:53;;;;;;;29.10;25.03;;;;;;;11.57;100.00;98119.84;5054749;28;20201;-69
2023/04/04 04:47:19;;;;;;;34.43;25.77;;;;;;;11.53;100.00;98132.00;5054798;28;20667;-69
2023/04/04 04:49:48;;;;;;;31.77;24.90;;;;;;;11.56;100.00;98126.19;5054975;28;20263;-68
2023/04/04 04:52:15;;;;;;;28.90;23.30;;;;;;;11.61;100.00;98144.97;5074137;28;20201;-68
2023/04/04 04:54:42;;;;;;;23.87;21.37;;;;;;;11.60;100.00;98126.56;5074512;28;20254;-69
2023/04/04 04:57:09;;;;;;;26.63;22.00;;;;;;;11.62;100.00;98133.28;5074625;28;20197;-69
2023/04/04 04:59:36;;;;;;;23.63;20.70;;;;;;;11.59;100.00;98130.25;5074596;28;20198;-69
2023/04/04 05:02:03;;;;;;;27.43;24.40;;;;;;;11.67;100.00;98140.56;5056276;28;20237;-70
2023/04/04 05:04:29;;;;;;;22.73;18.50;;;;;;;11.53;100.00;98115.22;5054394;28;20196;-69
2023/04/04 05:06:58;;;;;;;23.77;19.43;;;;;;;11.67;100.00;98122.72;5054496;28;20202;-69
2023/04/04 05:09:24;;;;;;;20.80;18.60;;;;;;;11.62;100.00;98119.16;5054742;28;20201;-68
2023/04/04 05:11:51;;;;;;;23.30;18.80;;;;;;;11.62;100.00;98125.31;5070434;28;20199;-68
2023/04/04 05:14:18;;;;;;;22.17;18.57;;;;;;;11.63;100.00;98126.13;5073521;28;20250;-72
2023/04/04 05:16:44;;;;;;;19.77;17.87;;;;;;;11.70;100.00;98135.56;5073327;28;20682;-71
2023/04/04 05:19:11;;;;;;;22.13;18.17;;;;;;;11.42;100.00;98119.53;5074229;28;20201;-75
2023/04/04 05:21:38;;;;;;;19.20;17.03;;;;;;;11.72;100.00;98114.06;5072168;28;20216;-76
2023/04/04 05:24:07;;;;;;;22.17;18.37;;;;;;;12.16;100.00;98115.97;5072431;28;20251;-75
2023/04/04 05:26:33;;;;;;;21.93;18.17;;;;;;;12.16;100.00;98119.41;5073507;28;20761;-77
2023/04/04 05:29:00;;;;;;;20.33;18.33;;;;;;;12.04;100.00;98123.97;5073894;28;20770;-74
2023/04/04 05:31:27;;;;;;;20.73;18.53;;;;;;;11.91;100.00;98118.13;5072838;28;20408;-74
2023/04/04 05:33:55;;;;;;;18.47;16.53;;;;;;;11.83;100.00;98122.00;5068293;28;20190;-74
2023/04/04 05:36:21;;;;;;;20.13;17.37;;;;;;;11.86;100.00;98115.38;5053473;28;20232;-75
2023/04/04 05:38:48;;;;;;;18.70;16.77;;;;;;;11.88;100.00;98114.09;5069734;28;20201;-77
2023/04/04 05:41:17;;;;;;;20.03;17.20;;;;;;;12.02;100.00;98117.28;5072979;28;20343;-82
2023/04/04 05:43:43;;;;;;;16.70;15.13;;;;;;;11.87;100.00;98122.31;5073832;28;20204;-82
2023/04/04 05:46:10;;;;;;;19.43;15.63;;;;;;;11.94;100.00;98115.81;5074362;28;20205;-83
2023/04/04 05:48:37;;;;;;;16.73;15.13;;;;;;;11.97;100.00;98128.63;5074343;28;20643;-83
2023/04/04 05:51:03;;;;;;;18.30;16.40;;;;;;;11.88;100.00;98130.06;5071461;28;20198;-78
2023/04/04 05:53:30;;;;;;;21.37;16.23;;;;;;;11.86;100.00;98132.16;5073559;28;20198;-82
2023/04/04 05:55:57;;;;;;;23.70;17.30;;;;;;;11.89;100.00;98123.72;5074183;28;20255;-85
2023/04/04 05:58:26;;;;;;;18.43;16.63;;;;;;;11.90;100.00;98138.63;5074612;28;20190;-76
2023/04/04 06:00:52;;;;;;;18.13;14.53;;;;;;;11.96;100.00;98132.34;5072108;28;20281;-74
2023/04/04 06:03:19;;;;;;;20.20;15.07;;;;;;;11.93;100.00;98142.66;5058415;28;20679;-75
2023/04/04 06:05:50;;;;;;;19.37;16.13;;;;;;;11.91;100.00;98140.25;5054800;28;20248;-70
2023/04/04 06:08:16;;;;;;;20.10;15.47;;;;;;;11.89;100.00;98142.34;5064263;28;20178;-73
2023/04/04 06:10:43;;;;;;;16.33;14.67;;;;;;;11.79;100.00;98154.59;5068218;28;20202;-75
2023/04/04 06:13:10;;;;;;;19.43;17.00;;;;;;;11.81;100.00;98157.84;5058413;28;20262;-73
2023/04/04 06:15:38;;;;;;;20.93;17.23;;;;;;;11.82;100.00;98141.66;5053739;28;20198;-72
2023/04/04 06:18:05;;;;;;;17.30;15.60;;;;;;;11.94;100.00;98150.41;5072202;28;20621;-70
2023/04/04 06:20:32;;;;;;;24.90;20.90;;;;;;;12.03;100.00;98151.66;5068038;28;20197;-74
2023/04/04 06:23:00;;;;;;;29.63;25.37;;;;;;;12.03;100.00;98159.63;5060085;28;20242;-73
2023/04/04 06:25:27;;;;;;;25.17;21.77;;;;;;;12.04;100.00;98142.59;5070915;28;20694;-74
2023/04/04 06:27:54;;;;;;;30.10;22.77;;;;;;;11.99;100.00;98147.84;5071427;28;20660;-73
2023/04/04 06:30:21;;;;;;;23.63;17.90;;;;;;;12.05;100.00;98152.19;5072928;28;20190;-72
2023/04/04 06:32:49;;;;;;;21.30;16.60;;;;;;;12.06;100.00;98143.19;5071668;28;20206;-70
2023/04/04 06:35:16;;;;;;;17.03;15.20;;;;;;;11.91;100.00;98145.56;5070798;28;20655;-73
2023/04/04 06:37:42;;;;;;;17.57;15.70;;;;;;;11.85;100.00;98135.88;5066862;28;20194;-69
2023/04/04 06:40:10;;;;;;;21.90;14.33;;;;;;;11.90;100.00;98154.59;5065195;28;20674;-73
2023/04/04 06:42:36;;;;;;;19.07;15.77;;;;;;;11.98;100.00;98146.22;5051577;28;20249;-73
2023/04/04 06:45:03;;;;;;;20.70;15.97;;;;;;;12.00;100.00;98160.09;5050370;28;20210;-72
2023/04/04 06:47:30;;;;;;;18.77;13.57;;;;;;;11.90;100.00;98159.91;5049647;28;20664;-73
2023/04/04 06:49:58;;;;;;;19.57;15.20;;;;;;;11.91;100.00;98139.41;5048934;28;20253;-71
2023/04/04 06:52:25;;;;;;;18.87;16.23;;;;;;;11.87;100.00;98149.75;5051051;28;20259;-69
2023/04/04 06:54:52;;;;;;;17.47;15.67;;;;;;;11.91;100.00;98150.88;5051102;28;20799;-68
2023/04/04 06:57:18;;;;;;;23.47;14.90;;;;;;;11.97;100.00;98151.78;5050580;28;20198;-70
2023/04/04 06:59:45;;;;;;;18.70;15.97;;;;;;;12.02;100.00;98131.41;5052038;28;20615;-70
2023/04/04 07:02:12;;;;;;;16.90;14.20;;;;;;;12.05;100.00;98146.88;5052183;28;20230;-70
2023/04/04 07:04:39;;;;;;;20.63;16.57;;;;;;;12.02;100.00;98149.22;5051778;28;20199;-69
2023/04/04 07:07:07;;;;;;;19.20;16.00;;;;;;;12.05;100.00;98146.09;5052226;28;20192;-71
2023/04/04 07:09:34;;;;;;;19.37;15.70;;;;;;;12.14;100.00;98148.13;5052173;28;20261;-68
2023/04/04 07:12:01;;;;;;;26.13;16.60;;;;;;;12.20;100.00;98149.84;5051821;28;20260;-70
2023/04/04 07:14:27;;;;;;;17.90;16.00;;;;;;;12.20;100.00;98149.84;5051859;28;20192;-69
2023/04/04 07:16:54;;;;;;;20.37;16.93;;;;;;;12.22;100.00;98147.75;5057326;28;20206;-70
2023/04/04 07:19:23;;;;;;;24.13;16.77;;;;;;;12.32;100.00;98147.91;5071974;28;20285;-70
2023/04/04 07:21:50;;;;;;;20.97;16.20;;;;;;;12.38;100.00;98151.47;5071973;28;20222;-69
2023/04/04 07:24:18;;;;;;;23.23;16.50;;;;;;;12.45;100.00;98155.59;5071808;28;20283;-69
2023/04/04 07:26:44;;;;;;;19.87;16.33;;;;;;;12.47;100.00;98147.38;5071526;28;20645;-70
2023/04/04 07:29:11;;;;;;;17.87;16.07;;;;;;;12.48;100.00;98157.78;5071578;28;20183;-71
2023/04/04 07:31:38;;;;;;;17.77;15.93;;;;;;;12.56;100.00;98165.38;5071382;28;20756;-69
2023/04/04 07:34:05;;;;;;;18.00;16.20;;;;;;;12.59;100.00;98164.91;5071499;28;20249;-68
2023/04/04 07:36:31;;;;;;;18.40;16.60;;;;;;;12.52;100.00;98179.41;5071767;28;20195;-70
2023/04/04 07:38:58;;;;;;;22.30;16.43;;;;;;;12.54;100.00;98166.69;5071371;28;20195;-70
2023/04/04 07:41:26;;;;;;;20.60;17.53;;;;;;;12.64;100.00;98180.97;5070948;28;20199;-72
2023/04/04 07:43:53;;;;;;;22.43;17.83;;;;;;;12.71;100.00;98170.16;5071572;28;20264;-71
2023/04/04 07:46:20;;;;;;;21.87;16.17;;;;;;;12.70;100.00;98182.66;5071163;28;20194;-72
2023/04/04 07:48:46;;;;;;;22.17;16.67;;;;;;;12.72;100.00;98188.56;5071386;28;20579;-72
2023/04/04 07:51:13;;;;;;;20.17;16.70;;;;;;;12.78;100.00;98179.59;5071732;28;20617;-72
2023/04/04 07:53:40;;;;;;;33.53;21.10;;;;;;;12.66;100.00;98175.41;5070779;28;20207;-70
2023/04/04 07:56:07;;;;;;;28.03;20.30;;;;;;;12.66;100.00;98173.53;5071577;28;20218;-70
2023/04/04 07:58:36;;;;;;;21.73;17.33;;;;;;;12.87;100.00;98177.34;5071210;28;20199;-71
2023/04/04 08:01:03;;;;;;;23.13;18.03;;;;;;;12.85;100.00;98172.25;5072020;28;20265;-72
2023/04/04 08:03:30;;;;;;;20.40;16.73;;;;;;;12.95;100.00;98169.75;5070120;28;20227;-70
2023/04/04 08:05:57;;;;;;;21.47;17.83;;;;;;;13.10;100.00;98167.34;5071464;28;20190;-71
2023/04/04 08:08:24;;;;;;;23.83;17.43;;;;;;;13.13;100.00;98156.22;5071131;28;20199;-71
2023/04/04 08:10:50;;;;;;;24.07;18.47;;;;;;;13.39;100.00;98166.16;5070256;28;20194;-71
2023/04/04 08:13:17;;;;;;;21.97;17.63;;;;;;;13.54;100.00;98166.38;5070760;28;20196;-71
2023/04/04 08:15:45;;;;;;;18.30;16.00;;;;;;;13.63;100.00;98175.56;5071168;28;20253;-72
2023/04/04 08:18:12;;;;;;;24.27;18.30;;;;;;;13.58;100.00;98166.69;5071543;28;20187;-71
2023/04/04 08:20:39;;;;;;;33.10;18.87;;;;;;;13.65;100.00;98178.00;5071430;28;20253;-72
2023/04/04 08:23:05;;;;;;;21.57;17.20;;;;;;;13.63;100.00;98178.22;5070595;28;20265;-72
2023/04/04 08:25:33;;;;;;;22.73;16.73;;;;;;;13.45;100.00;98175.88;5071268;28;20188;-72
2023/04/04 08:28:02;;;;;;;21.57;15.10;;;;;;;13.55;100.00;98186.66;5071601;28;20231;-73
2023/04/04 08:30:29;;;;;;;20.13;16.27;;;;;;;13.47;100.00;98181.75;5071432;28;20677;-71
2023/04/04 08:32:57;;;;;;;25.27;18.23;;;;;;;13.50;100.00;98186.59;5071588;28;20196;-71
2023/04/04 08:35:25;;;;;;;22.30;17.77;;;;;;;13.49;100.00;98177.00;5071516;28;20207;-70
2023/04/04 08:37:52;;;;;;;37.20;22.83;;;;;;;13.59;100.00;98171.78;5071578;28;20207;-71
2023/04/04 08:40:19;;;;;;;29.97;19.37;;;;;;;13.72;100.00;98184.75;5071502;28;20253;-70
2023/04/04 08:42:48;;;;;;;24.53;18.60;;;;;;;13.83;99.91;98183.00;5071056;28;20574;-70
2023/04/04 08:45:18;;;;;;;24.40;20.47;;;;;;;13.84;98.80;98185.44;5071296;28;20199;-69
2023/04/04 08:47:48;;;;;;;26.87;18.67;;;;;;;13.79;99.08;98166.69;5070820;28;20180;-69
2023/04/04 08:50:17;;;;;;;20.07;17.33;;;;;;;13.97;99.30;98190.41;5070930;28;20216;-70
2023/04/04 08:52:45;;;;;;;22.63;17.93;;;;;;;14.03;98.41;98193.94;5071593;28;20204;-72
2023/04/04 08:55:13;;;;;;;17.73;15.67;;;;;;;14.02;97.99;98197.66;5071135;28;20245;-70
2023/04/04 08:57:40;;;;;;;17.27;15.57;;;;;;;14.12;97.75;98201.25;5071717;28;20188;-69
2023/04/04 09:00:08;;;;;;;21.00;16.77;;;;;;;14.04;97.22;98195.53;5071296;28;20192;-70
2023/04/04 09:02:43;;;;;;;18.80;15.67;;;;;;;14.10;96.99;98194.56;5070961;28;20227;-70
2023/04/04 09:05:12;;;;;;;21.30;17.93;;;;;;;14.17;97.57;98195.19;5071347;28;20545;-71
2023/04/04 09:07:41;;;;;;;18.67;16.33;;;;;;;14.24;97.19;98201.97;5071465;28;20187;-69
2023/04/04 09:10:10;;;;;;;21.60;17.37;;;;;;;14.13;95.88;98199.41;5071245;28;20195;-71
2023/04/04 09:12:41;;;;;;;24.83;18.57;;;;;;;14.11;96.34;98183.63;5071170;28;20196;-70
2023/04/04 09:15:10;;;;;;;19.83;17.33;;;;;;;14.11;96.96;98196.16;5074433;28;20245;-70
2023/04/04 09:17:37;;;;;;;19.60;17.57;;;;;;;14.17;96.46;98206.66;5074911;28;20200;-71
2023/04/04 09:20:27;;;;;;;27.27;17.67;;;;;;;14.31;100.00;98197.25;5074018;28;20235;-71
2023/04/04 09:22:55;;;;;;;20.77;16.03;;;;;;;14.47;98.08;98201.69;5076244;28;20303;-71
2023/04/04 09:25:22;;;;;;;22.33;18.20;;;;;;;14.29;95.01;98188.66;5074725;28;20184;-71
2023/04/04 09:27:49;;;;;;;24.23;18.73;;;;;;;14.33;95.99;98199.63;5074918;28;20227;-73
2023/04/04 09:30:16;;;;;;;30.40;18.70;;;;;;;14.41;95.63;98200.00;5074053;28;20196;-73
2023/04/04 09:32:44;;;;;;;21.03;16.97;;;;;;;14.53;95.02;98208.69;5074602;28;20243;-70
2023/04/04 09:35:12;;;;;;;20.10;16.67;;;;;;;14.61;94.92;98210.91;5074426;28;20249;-74
2023/04/04 09:37:41;;;;;;;21.33;16.97;;;;;;;14.71;93.88;98213.66;5074890;28;20618;-71
2023/04/04 09:40:10;;;;;;;25.00;17.60;;;;;;;14.74;93.41;98212.34;5074505;28;20196;-73
2023/04/04 09:42:37;;;;;;;17.90;15.97;;;;;;;14.84;93.55;98212.44;5074256;28;20220;-70
2023/04/04 09:45:05;;;;;;;22.67;17.70;;;;;;;14.84;92.24;98215.94;5073908;28;20196;-71
2023/04/04 09:47:32;;;;;;;19.30;16.60;;;;;;;14.88;92.34;98217.03;5073930;28;20697;-71
2023/04/04 09:49:59;;;;;;;27.23;19.30;;;;;;;14.86;91.89;98221.00;5074033;28;20230;-71
2023/04/04 09:52:26;;;;;;;18.03;15.87;;;;;;;14.73;91.35;98200.03;5072329;28;20726;-72
2023/04/04 09:54:57;;;;;;;21.67;16.90;;;;;;;14.89;92.64;98217.84;5072586;28;20223;-72
2023/04/04 09:57:28;;;;;;;17.17;13.90;;;;;;;14.91;90.69;98215.72;5073448;28;20227;-71
2023/04/04 09:59:57;;;;;;;15.73;14.17;;;;;;;14.90;91.55;98209.56;5073983;28;20245;-71
2023/04/04 10:02:24;;;;;;;18.57;16.57;;;;;;;15.01;91.90;98208.59;5073790;28;20287;-72
2023/04/04 10:04:53;;;;;;;17.27;15.47;;;;;;;15.11;90.45;98219.34;5072444;28;20188;-72
2023/04/04 10:07:20;;;;;;;17.30;15.30;;;;;;;15.15;89.85;98220.47;5073551;28;20200;-72
2023/04/04 10:09:49;;;;;;;26.03;16.70;;;;;;;15.09;89.70;98220.69;5073410;28;20742;-72
2023/04/04 10:12:16;;;;;;;19.87;15.03;;;;;;;15.15;89.97;98214.31;5073448;28;20567;-72
2023/04/04 10:14:47;;;;;;;19.37;16.23;;;;;;;15.26;89.32;98216.81;5073678;28;20203;-71
2023/04/04 10:17:13;;;;;;;25.83;16.97;;;;;;;15.38;89.40;98209.44;5073562;28;20246;-71
2023/04/04 10:19:40;;;;;;;20.83;16.00;;;;;;;15.48;88.89;98208.69;5073275;28;20192;-71
2023/04/04 10:22:08;;;;;;;17.03;14.63;;;;;;;15.46;88.08;98206.28;5073623;28;20199;-71
2023/04/04 10:24:35;;;;;;;17.17;14.00;;;;;;;15.47;86.77;98207.88;5073027;28;20235;-70
2023/04/04 10:27:02;;;;;;;14.13;12.73;;;;;;;15.54;87.24;98205.78;5072873;28;20281;-71
2023/04/04 10:29:29;;;;;;;13.80;12.60;;;;;;;15.62;86.20;98199.94;5073486;28;20218;-70
2023/04/04 10:32:05;;;;;;;18.90;13.30;;;;;;;15.72;86.66;98200.00;5073096;28;20552;-71
2023/04/04 10:34:41;;;;;;;15.47;13.20;;;;;;;15.87;85.75;98196.56;5073415;28;20188;-70
2023/04/04 10:37:08;;;;;;;14.03;12.53;;;;;;;16.12;85.95;98177.13;5072725;28;20245;-70
2023/04/04 10:39:41;;;;;;;12.23;10.97;;;;;;;16.62;85.24;98194.16;5072604;28;20723;-71
2023/04/04 10:42:10;;;;;;;11.97;9.60;;;;;;;17.01;82.52;98192.56;5063408;28;20278;-70
2023/04/04 10:44:38;;;;;;;16.00;11.70;;;;;;;17.37;80.44;98204.09;5071415;28;20234;-69
2023/04/04 10:47:15;;;;;;;10.27;9.27;;;;;;;17.69;79.42;98196.53;5069145;28;20190;-70
2023/04/04 10:49:44;;;;;;;16.77;11.87;;;;;;;17.81;75.39;98208.56;5062355;28;20194;-71
2023/04/04 10:52:13;;;;;;;10.60;9.70;;;;;;;18.03;76.19;98200.16;5052999;28;20200;-70
2023/04/04 10:54:41;;;;;;;12.10;10.37;;;;;;;18.46;75.69;98204.84;5063017;28;20199;-70
2023/04/04 10:57:08;;;;;;;18.13;11.60;;;;;;;18.84;73.55;98202.19;5068795;28;20576;-70
2023/04/04 10:59:34;;;;;;;9.97;9.17;;;;;;;18.91;71.54;98196.47;5052631;28;20193;-70
2023/04/04 11:02:02;;;;;;;10.50;8.47;;;;;;;19.24;70.92;98201.09;5052742;28;20247;-70
2023/04/04 11:04:33;;;;;;;11.87;10.13;;;;;;;19.43;69.03;98199.25;5052869;28;20223;-70
2023/04/04 11:07:16;;;;;;;11.27;9.70;;;;;;;19.66;67.23;98206.59;5052528;28;20199;-71
2023/04/04 11:09:50;;;;;;;9.87;8.93;;;;;;;19.78;67.01;98210.50;5052291;28;20194;-71
2023/04/04 11:12:22;;;;;;;10.60;9.50;;;;;;;19.85;66.02;98207.47;5053730;28;20187;-71
2023/04/04 11:15:08;;;;;;;12.67;9.83;;;;;;;20.02;66.20;98205.13;5058838;28;20196;-71